Monticello, KY

6:37 PM CDT on August 20, 2014 (GMT -0500)
Colonial Estates | Change Station
CLOSE
Current Station
Personal Weather Station
Location: Monticello, KY
Elevation: 1004 ft
Nearby Weather Stations

Elev 1004 ft 36.87 °N, 84.83 °W | Updated 1 minute ago

Thunderstorm
Thunderstorm
68.9 °F
Feels Like 68.9 °F
N
2.2
Wind Variable Wind from South
Gusts 4.5 mph

Today
High -- | Low -- °F
--% Chance of Precip.
Yesterday
High -- | Low -- °F
Precip. -- in
6:00 AM 7:24 PM
Waning Crescent, 18% visible
Pressure 30.07 in
Visibility 10.0 miles
Clouds Scattered Clouds 7000 ft
Scattered Clouds 10000 ft
Dew Point 69 °F
Humidity 100%
Rainfall 2.01 in
Snow Depth Not available.
UV 1 out of 12
Pollen 9.20 out of 12
Air Quality Not available.
Flu Activity Not available.
METAR KSME 202315Z AUTO 00000KT 10SM TS SCT070 SCT100 20/20 A3007 RMK AO2 LTG DSNT E THRU SW

More Conditions Fewer Conditions

Pressure 30.07 in
Visibility 10.0 miles
Clouds Scattered Clouds 7000 ft
Scattered Clouds 10000 ft
Dew Point 69 °F
Humidity 100%
Rainfall 2.01 in
Snow Depth Not available.
UV 1 out of 12
Pollen 9.20 out of 12
Air Quality Not available.
Flu Activity Not available.
METAR KSME 202315Z AUTO 00000KT 10SM TS SCT070 SCT100 20/20 A3007 RMK AO2 LTG DSNT E THRU SW

More Conditions Fewer Conditions

10-Day Weather Forecast

Almanac

Astronomy

Aug. 20, 2014 Rise Set
Actual Time 6:00 AM CDT 7:24 PM CDT
Civil Twilight 5:33 AM CDT 7:51 PM CDT
Nautical Twilight 5:00 AM CDT 8:23 PM CDT
Astronomical Twilight 4:26 AM CDT 8:58 PM CDT
Moon 1:42 AM CDT 4:06 PM CDT
Length of Visible Light 14h 18m
Length of Day
13h 23m
Tomorrow will be 2m 8s shorter.
Waning Crescent, 18% of the Moon is Illuminated
Today
Waning Crescent
Aug 25
New
Sep 2
First Quarter
Sep 8
Full
Sep 15
Last Quarter

Today's Extremes

State Highs State Lows

Community

WunderPhotos

Upload Photos

1,745,799 photos uploaded!

Nearby

Snow Depth

Station Depth Elevation
No new snow has been reported.

Earthquake Activity

City Distance Mag. Time & Date
No recent earthquake activity has been reported nearby.
Minimum magnitude displayed is 2.5.

Coastal Water Temperatures

Place Temperature
No Stations Reporting

Nearby Weather Stations